sensor_id;sensor_type;location;lat;lon;timestamp;temperature;humidity
26107;DHT22;13866;50.748;12.630;2022-10-04T00:09:24;10.40;99.90
26107;DHT22;13866;50.748;12.630;2022-10-04T00:11:53;10.40;99.90
26107;DHT22;13866;50.748;12.630;2022-10-04T00:14:32;10.40;99.90
26107;DHT22;13866;50.748;12.630;2022-10-04T00:17:08;10.40;99.90
26107;DHT22;13866;50.748;12.630;2022-10-04T00:19:46;10.50;99.90
26107;DHT22;13866;50.748;12.630;2022-10-04T00:22:20;10.40;99.90
26107;DHT22;13866;50.748;12.630;2022-10-04T00:27:30;10.40;99.90
26107;DHT22;13866;50.748;12.630;2022-10-04T00:32:29;10.40;99.90
26107;DHT22;13866;50.748;12.630;2022-10-04T00:34:55;10.40;99.90
26107;DHT22;13866;50.748;12.630;2022-10-04T00:37:23;10.40;99.90
26107;DHT22;13866;50.748;12.630;2022-10-04T00:40:04;10.40;99.90
26107;DHT22;13866;50.748;12.630;2022-10-04T00:42:51;10.40;99.90
26107;DHT22;13866;50.748;12.630;2022-10-04T00:45:40;10.40;99.90
26107;DHT22;13866;50.748;12.630;2022-10-04T00:48:24;10.40;99.90
26107;DHT22;13866;50.748;12.630;2022-10-04T00:53:47;10.40;99.90
26107;DHT22;13866;50.748;12.630;2022-10-04T00:56:22;10.30;99.90
26107;DHT22;13866;50.748;12.630;2022-10-04T01:01:20;10.30;99.90
26107;DHT22;13866;50.748;12.630;2022-10-04T01:03:48;10.30;99.90
26107;DHT22;13866;50.748;12.630;2022-10-04T01:06:18;10.30;99.90
26107;DHT22;13866;50.748;12.630;2022-10-04T01:08:48;10.30;99.90
26107;DHT22;13866;50.748;12.630;2022-10-04T01:11:22;10.30;99.90
26107;DHT22;13866;50.748;12.630;2022-10-04T01:13:56;10.30;99.90
26107;DHT22;13866;50.748;12.630;2022-10-04T01:16:28;10.30;99.90
26107;DHT22;13866;50.748;12.630;2022-10-04T01:18:54;10.30;99.90
26107;DHT22;13866;50.748;12.630;2022-10-04T01:21:27;10.30;99.90
26107;DHT22;13866;50.748;12.630;2022-10-04T01:29:01;10.30;99.90
26107;DHT22;13866;50.748;12.630;2022-10-04T01:31:31;10.30;99.90
26107;DHT22;13866;50.748;12.630;2022-10-04T01:33:58;10.30;99.90
26107;DHT22;13866;50.748;12.630;2022-10-04T01:36:24;10.30;99.90
26107;DHT22;13866;50.748;12.630;2022-10-04T01:38:52;10.30;99.90
26107;DHT22;13866;50.748;12.630;2022-10-04T01:41:21;10.30;99.90
26107;DHT22;13866;50.748;12.630;2022-10-04T01:43:51;10.30;99.90
26107;DHT22;13866;50.748;12.630;2022-10-04T01:46:22;10.30;99.90
26107;DHT22;13866;50.748;12.630;2022-10-04T01:48:51;10.30;99.90
26107;DHT22;13866;50.748;12.630;2022-10-04T01:51:23;10.30;99.90
26107;DHT22;13866;50.748;12.630;2022-10-04T01:54:03;10.40;99.90
26107;DHT22;13866;50.748;12.630;2022-10-04T01:56:33;10.40;99.90
26107;DHT22;13866;50.748;12.630;2022-10-04T01:59:05;10.40;99.90
26107;DHT22;13866;50.748;12.630;2022-10-04T02:01:37;10.40;99.90
26107;DHT22;13866;50.748;12.630;2022-10-04T02:04:19;10.40;99.90
26107;DHT22;13866;50.748;12.630;2022-10-04T02:06:50;10.30;99.90
26107;DHT22;13866;50.748;12.630;2022-10-04T02:09:24;10.30;99.90
26107;DHT22;13866;50.748;12.630;2022-10-04T02:11:52;10.30;99.90
26107;DHT22;13866;50.748;12.630;2022-10-04T02:14:22;10.30;99.90
26107;DHT22;13866;50.748;12.630;2022-10-04T02:16:50;10.30;99.90
26107;DHT22;13866;50.748;12.630;2022-10-04T02:19:19;10.40;99.90
26107;DHT22;13866;50.748;12.630;2022-10-04T02:21:47;10.40;99.90
26107;DHT22;13866;50.748;12.630;2022-10-04T02:24:14;10.40;99.90
26107;DHT22;13866;50.748;12.630;2022-10-04T02:26:40;10.30;99.90
26107;DHT22;13866;50.748;12.630;2022-10-04T02:29:05;10.30;99.90
26107;DHT22;13866;50.748;12.630;2022-10-04T02:31:31;10.30;99.90
26107;DHT22;13866;50.748;12.630;2022-10-04T02:34:17;10.30;99.90
26107;DHT22;13866;50.748;12.630;2022-10-04T02:36:43;10.30;99.90
26107;DHT22;13866;50.748;12.630;2022-10-04T02:39:14;10.30;99.90
26107;DHT22;13866;50.748;12.630;2022-10-04T02:41:56;10.20;99.90
26107;DHT22;13866;50.748;12.630;2022-10-04T02:44:27;10.20;99.90
26107;DHT22;13866;50.748;12.630;2022-10-04T02:46:55;10.20;99.90
26107;DHT22;13866;50.748;12.630;2022-10-04T02:49:31;10.20;99.90
26107;DHT22;13866;50.748;12.630;2022-10-04T02:52:10;10.20;99.90
26107;DHT22;13866;50.748;12.630;2022-10-04T02:54:43;10.20;99.90
26107;DHT22;13866;50.748;12.630;2022-10-04T02:57:18;10.20;99.90
26107;DHT22;13866;50.748;12.630;2022-10-04T02:59:44;10.20;99.90
26107;DHT22;13866;50.748;12.630;2022-10-04T03:02:29;10.20;99.90
26107;DHT22;13866;50.748;12.630;2022-10-04T03:04:58;10.20;99.90
26107;DHT22;13866;50.748;12.630;2022-10-04T03:07:25;10.20;99.90
26107;DHT22;13866;50.748;12.630;2022-10-04T03:09:51;10.20;99.90
26107;DHT22;13866;50.748;12.630;2022-10-04T03:12:17;10.10;99.90
26107;DHT22;13866;50.748;12.630;2022-10-04T03:14:44;10.10;99.90
26107;DHT22;13866;50.748;12.630;2022-10-04T03:17:09;10.10;99.90
26107;DHT22;13866;50.748;12.630;2022-10-04T03:19:35;10.10;99.90
26107;DHT22;13866;50.748;12.630;2022-10-04T03:22:07;10.10;99.90
26107;DHT22;13866;50.748;12.630;2022-10-04T03:24:37;10.10;99.90
26107;DHT22;13866;50.748;12.630;2022-10-04T03:27:06;10.00;99.90
26107;DHT22;13866;50.748;12.630;2022-10-04T03:29:34;10.00;99.90
26107;DHT22;13866;50.748;12.630;2022-10-04T03:32:04;10.10;99.90
26107;DHT22;13866;50.748;12.630;2022-10-04T03:34:36;10.10;99.90
26107;DHT22;13866;50.748;12.630;2022-10-04T03:37:06;10.10;99.90
26107;DHT22;13866;50.748;12.630;2022-10-04T03:39:44;10.00;99.90
26107;DHT22;13866;50.748;12.630;2022-10-04T03:42:16;10.00;99.90
26107;DHT22;13866;50.748;12.630;2022-10-04T03:44:48;10.00;99.90
26107;DHT22;13866;50.748;12.630;2022-10-04T03:47:19;10.00;99.90
26107;DHT22;13866;50.748;12.630;2022-10-04T03:49:46;10.00;99.90
26107;DHT22;13866;50.748;12.630;2022-10-04T03:52:23;10.00;99.90
26107;DHT22;13866;50.748;12.630;2022-10-04T03:54:52;9.90;99.90
26107;DHT22;13866;50.748;12.630;2022-10-04T03:57:19;9.80;99.90
26107;DHT22;13866;50.748;12.630;2022-10-04T03:59:45;9.70;99.90
26107;DHT22;13866;50.748;12.630;2022-10-04T04:05:09;9.60;99.90
26107;DHT22;13866;50.748;12.630;2022-10-04T04:07:41;9.50;99.90
26107;DHT22;13866;50.748;12.630;2022-10-04T04:10:26;9.50;99.90
26107;DHT22;13866;50.748;12.630;2022-10-04T04:12:56;9.40;99.90
26107;DHT22;13866;50.748;12.630;2022-10-04T04:15:27;9.40;99.90
26107;DHT22;13866;50.748;12.630;2022-10-04T04:17:55;9.40;99.90
26107;DHT22;13866;50.748;12.630;2022-10-04T04:20:24;9.40;99.90
26107;DHT22;13866;50.748;12.630;2022-10-04T04:22:59;9.40;99.90
26107;DHT22;13866;50.748;12.630;2022-10-04T04:25:27;9.30;99.90
26107;DHT22;13866;50.748;12.630;2022-10-04T04:28:00;9.30;99.90
26107;DHT22;13866;50.748;12.630;2022-10-04T04:30:28;9.30;99.90
26107;DHT22;13866;50.748;12.630;2022-10-04T04:32:55;9.20;99.90
26107;DHT22;13866;50.748;12.630;2022-10-04T04:35:23;9.20;99.90
26107;DHT22;13866;50.748;12.630;2022-10-04T04:38:19;9.20;99.90
26107;DHT22;13866;50.748;12.630;2022-10-04T04:40:45;9.20;99.90
26107;DHT22;13866;50.748;12.630;2022-10-04T04:43:18;9.20;99.90
26107;DHT22;13866;50.748;12.630;2022-10-04T04:45:46;9.20;99.90
26107;DHT22;13866;50.748;12.630;2022-10-04T04:48:15;9.10;99.90
26107;DHT22;13866;50.748;12.630;2022-10-04T04:50:41;9.10;99.90
26107;DHT22;13866;50.748;12.630;2022-10-04T04:53:25;9.10;99.90
26107;DHT22;13866;50.748;12.630;2022-10-04T04:55:58;9.00;99.90
26107;DHT22;13866;50.748;12.630;2022-10-04T04:58:27;8.90;99.90
26107;DHT22;13866;50.748;12.630;2022-10-04T05:01:22;8.90;99.90
26107;DHT22;13866;50.748;12.630;2022-10-04T05:06:38;8.90;99.90
26107;DHT22;13866;50.748;12.630;2022-10-04T05:09:05;8.90;99.90
26107;DHT22;13866;50.748;12.630;2022-10-04T05:11:34;9.00;99.90
26107;DHT22;13866;50.748;12.630;2022-10-04T05:14:06;9.00;99.90
26107;DHT22;13866;50.748;12.630;2022-10-04T05:16:52;9.00;99.90
26107;DHT22;13866;50.748;12.630;2022-10-04T05:21:47;9.00;99.90
26107;DHT22;13866;50.748;12.630;2022-10-04T05:26:42;8.90;99.90
26107;DHT22;13866;50.748;12.630;2022-10-04T05:29:16;8.80;99.90
26107;DHT22;13866;50.748;12.630;2022-10-04T05:32:20;8.80;99.90
26107;DHT22;13866;50.748;12.630;2022-10-04T05:34:48;8.80;99.90
26107;DHT22;13866;50.748;12.630;2022-10-04T05:37:26;8.80;99.90
26107;DHT22;13866;50.748;12.630;2022-10-04T05:42:35;8.90;99.90
26107;DHT22;13866;50.748;12.630;2022-10-04T05:45:13;9.00;99.90
26107;DHT22;13866;50.748;12.630;2022-10-04T05:47:41;9.00;99.90
26107;DHT22;13866;50.748;12.630;2022-10-04T05:50:36;9.00;99.90
26107;DHT22;13866;50.748;12.630;2022-10-04T05:53:21;9.10;99.90
26107;DHT22;13866;50.748;12.630;2022-10-04T06:07:22;9.40;99.90
26107;DHT22;13866;50.748;12.630;2022-10-04T06:23:14;9.90;99.90
26107;DHT22;13866;50.748;12.630;2022-10-04T06:25:44;10.00;99.90
26107;DHT22;13866;50.748;12.630;2022-10-04T06:28:22;10.00;99.90
26107;DHT22;13866;50.748;12.630;2022-10-04T06:45:42;10.40;99.90
26107;DHT22;13866;50.748;12.630;2022-10-04T06:54:06;10.60;99.90
26107;DHT22;13866;50.748;12.630;2022-10-04T07:05:53;10.70;99.90
26107;DHT22;13866;50.748;12.630;2022-10-04T07:08:20;10.80;99.90
26107;DHT22;13866;50.748;12.630;2022-10-04T07:11:04;10.80;99.90
26107;DHT22;13866;50.748;12.630;2022-10-04T07:18:48;11.00;99.90
26107;DHT22;13866;50.748;12.630;2022-10-04T07:21:16;11.00;99.90
26107;DHT22;13866;50.748;12.630;2022-10-04T07:23:48;11.00;99.90
26107;DHT22;13866;50.748;12.630;2022-10-04T07:26:26;11.10;99.90
26107;DHT22;13866;50.748;12.630;2022-10-04T07:28:59;11.10;99.90
26107;DHT22;13866;50.748;12.630;2022-10-04T07:32:10;11.20;99.90
26107;DHT22;13866;50.748;12.630;2022-10-04T07:34:49;11.20;99.90
26107;DHT22;13866;50.748;12.630;2022-10-04T07:37:16;11.40;99.90
26107;DHT22;13866;50.748;12.630;2022-10-04T07:39:55;11.40;99.90
26107;DHT22;13866;50.748;12.630;2022-10-04T07:42:46;11.40;99.90
26107;DHT22;13866;50.748;12.630;2022-10-04T07:45:26;11.40;99.90
26107;DHT22;13866;50.748;12.630;2022-10-04T07:48:09;11.50;99.90
26107;DHT22;13866;50.748;12.630;2022-10-04T07:51:04;11.60;99.90
26107;DHT22;13866;50.748;12.630;2022-10-04T07:56:37;11.60;99.90
26107;DHT22;13866;50.748;12.630;2022-10-04T08:04:39;11.60;99.90
26107;DHT22;13866;50.748;12.630;2022-10-04T08:07:24;11.60;99.90
26107;DHT22;13866;50.748;12.630;2022-10-04T08:10:09;11.60;99.90
26107;DHT22;13866;50.748;12.630;2022-10-04T08:12:56;11.60;99.90
26107;DHT22;13866;50.748;12.630;2022-10-04T08:18:15;11.80;99.90
26107;DHT22;13866;50.748;12.630;2022-10-04T08:20:48;11.70;99.90
26107;DHT22;13866;50.748;12.630;2022-10-04T08:36:45;12.00;99.90
26107;DHT22;13866;50.748;12.630;2022-10-04T08:40:09;12.10;99.90
26107;DHT22;13866;50.748;12.630;2022-10-04T09:15:51;12.70;99.90
26107;DHT22;13866;50.748;12.630;2022-10-04T09:21:39;12.80;99.90
26107;DHT22;13866;50.748;12.630;2022-10-04T09:36:03;13.10;99.90
26107;DHT22;13866;50.748;12.630;2022-10-04T09:38:51;13.20;99.90
26107;DHT22;13866;50.748;12.630;2022-10-04T09:41:45;13.40;99.90
26107;DHT22;13866;50.748;12.630;2022-10-04T09:47:25;13.50;99.90
26107;DHT22;13866;50.748;12.630;2022-10-04T09:50:29;13.70;99.90
26107;DHT22;13866;50.748;12.630;2022-10-04T09:53:36;13.90;99.90
26107;DHT22;13866;50.748;12.630;2022-10-04T10:16:42;14.70;99.90
26107;DHT22;13866;50.748;12.630;2022-10-04T10:19:30;14.80;99.90
26107;DHT22;13866;50.748;12.630;2022-10-04T10:25:20;14.80;99.90
26107;DHT22;13866;50.748;12.630;2022-10-04T10:33:56;15.80;99.90
26107;DHT22;13866;50.748;12.630;2022-10-04T10:39:32;15.70;99.90
26107;DHT22;13866;50.748;12.630;2022-10-04T10:45:09;16.20;99.90
26107;DHT22;13866;50.748;12.630;2022-10-04T10:50:52;16.50;99.90
26107;DHT22;13866;50.748;12.630;2022-10-04T11:13:42;17.80;99.90
26107;DHT22;13866;50.748;12.630;2022-10-04T11:19:24;18.20;99.90
26107;DHT22;13866;50.748;12.630;2022-10-04T11:30:23;18.30;99.90
26107;DHT22;13866;50.748;12.630;2022-10-04T11:36:16;18.30;99.90
26107;DHT22;13866;50.748;12.630;2022-10-04T11:38:56;18.40;99.90
26107;DHT22;13866;50.748;12.630;2022-10-04T11:41:50;18.30;99.90
26107;DHT22;13866;50.748;12.630;2022-10-04T11:50:26;18.60;99.90
26107;DHT22;13866;50.748;12.630;2022-10-04T11:53:29;18.80;99.90
26107;DHT22;13866;50.748;12.630;2022-10-04T11:58:53;18.70;99.90
26107;DHT22;13866;50.748;12.630;2022-10-04T12:06:57;18.90;99.90
26107;DHT22;13866;50.748;12.630;2022-10-04T12:25:59;18.70;99.90
26107;DHT22;13866;50.748;12.630;2022-10-04T12:28:58;18.60;99.90
26107;DHT22;13866;50.748;12.630;2022-10-04T12:31:28;18.90;99.90
26107;DHT22;13866;50.748;12.630;2022-10-04T12:36:56;19.10;99.90
26107;DHT22;13866;50.748;12.630;2022-10-04T12:40:02;18.70;99.90
26107;DHT22;13866;50.748;12.630;2022-10-04T12:42:57;19.10;99.90
26107;DHT22;13866;50.748;12.630;2022-10-04T12:48:59;18.80;99.90
26107;DHT22;13866;50.748;12.630;2022-10-04T12:52:17;18.90;99.90
26107;DHT22;13866;50.748;12.630;2022-10-04T12:54:43;19.10;99.90
26107;DHT22;13866;50.748;12.630;2022-10-04T12:57:24;19.10;99.90
26107;DHT22;13866;50.748;12.630;2022-10-04T13:00:13;19.20;99.90
26107;DHT22;13866;50.748;12.630;2022-10-04T13:03:15;19.00;99.90
26107;DHT22;13866;50.748;12.630;2022-10-04T13:08:58;18.90;99.90
26107;DHT22;13866;50.748;12.630;2022-10-04T13:11:55;18.80;99.90
26107;DHT22;13866;50.748;12.630;2022-10-04T13:19:48;18.70;99.90
26107;DHT22;13866;50.748;12.630;2022-10-04T13:25:38;18.90;99.90
26107;DHT22;13866;50.748;12.630;2022-10-04T13:27:58;18.90;99.90
26107;DHT22;13866;50.748;12.630;2022-10-04T13:30:48;18.90;99.90
26107;DHT22;13866;50.748;12.630;2022-10-04T13:33:28;18.90;99.90
26107;DHT22;13866;50.748;12.630;2022-10-04T13:36:05;18.90;99.90
26107;DHT22;13866;50.748;12.630;2022-10-04T13:41:34;18.70;99.90
26107;DHT22;13866;50.748;12.630;2022-10-04T13:46:58;18.30;99.90
26107;DHT22;13866;50.748;12.630;2022-10-04T13:49:47;18.10;99.90
26107;DHT22;13866;50.748;12.630;2022-10-04T13:52:36;18.00;99.90
26107;DHT22;13866;50.748;12.630;2022-10-04T13:55:38;17.90;99.90
26107;DHT22;13866;50.748;12.630;2022-10-04T14:04:10;17.70;99.90
26107;DHT22;13866;50.748;12.630;2022-10-04T14:06:56;17.60;99.90
26107;DHT22;13866;50.748;12.630;2022-10-04T14:17:52;17.20;99.90
26107;DHT22;13866;50.748;12.630;2022-10-04T14:23:41;17.30;99.90
26107;DHT22;13866;50.748;12.630;2022-10-04T14:26:48;17.20;99.90
26107;DHT22;13866;50.748;12.630;2022-10-04T14:29:50;17.30;99.90
26107;DHT22;13866;50.748;12.630;2022-10-04T14:38:11;17.10;99.90
26107;DHT22;13866;50.748;12.630;2022-10-04T14:47:06;17.00;99.90
26107;DHT22;13866;50.748;12.630;2022-10-04T14:49:50;17.00;99.90
26107;DHT22;13866;50.748;12.630;2022-10-04T14:52:57;17.00;99.90
26107;DHT22;13866;50.748;12.630;2022-10-04T14:58:46;16.80;99.90
26107;DHT22;13866;50.748;12.630;2022-10-04T15:06:59;16.80;99.90
26107;DHT22;13866;50.748;12.630;2022-10-04T15:09:50;16.80;99.90
26107;DHT22;13866;50.748;12.630;2022-10-04T15:12:40;16.80;99.90
26107;DHT22;13866;50.748;12.630;2022-10-04T15:26:37;16.60;99.90
26107;DHT22;13866;50.748;12.630;2022-10-04T15:34:43;16.50;99.90
26107;DHT22;13866;50.748;12.630;2022-10-04T15:48:48;16.30;99.90
26107;DHT22;13866;50.748;12.630;2022-10-04T15:57:34;16.00;99.90
26107;DHT22;13866;50.748;12.630;2022-10-04T16:00:13;15.90;99.90
26107;DHT22;13866;50.748;12.630;2022-10-04T16:02:50;15.90;99.90
26107;DHT22;13866;50.748;12.630;2022-10-04T16:05:36;15.90;99.90
26107;DHT22;13866;50.748;12.630;2022-10-04T16:08:16;15.80;99.90
26107;DHT22;13866;50.748;12.630;2022-10-04T16:22:26;15.10;99.90
26107;DHT22;13866;50.748;12.630;2022-10-04T16:24:57;14.80;99.90
26107;DHT22;13866;50.748;12.630;2022-10-04T16:30:21;14.50;99.90
26107;DHT22;13866;50.748;12.630;2022-10-04T16:33:19;14.30;99.90
26107;DHT22;13866;50.748;12.630;2022-10-04T16:38:25;14.00;99.90
26107;DHT22;13866;50.748;12.630;2022-10-04T16:41:12;13.90;99.90
26107;DHT22;13866;50.748;12.630;2022-10-04T16:43:53;13.70;99.90
26107;DHT22;13866;50.748;12.630;2022-10-04T16:46:30;13.70;99.90
26107;DHT22;13866;50.748;12.630;2022-10-04T16:49:19;13.60;99.90
26107;DHT22;13866;50.748;12.630;2022-10-04T16:57:35;13.00;99.90
26107;DHT22;13866;50.748;12.630;2022-10-04T17:00:31;12.90;99.90
26107;DHT22;13866;50.748;12.630;2022-10-04T17:03:09;12.70;99.90
26107;DHT22;13866;50.748;12.630;2022-10-04T17:05:55;12.70;99.90
26107;DHT22;13866;50.748;12.630;2022-10-04T17:08:46;12.50;99.90
26107;DHT22;13866;50.748;12.630;2022-10-04T17:11:39;12.30;99.90
26107;DHT22;13866;50.748;12.630;2022-10-04T17:14:34;12.20;99.90
26107;DHT22;13866;50.748;12.630;2022-10-04T17:17:20;12.20;99.90
26107;DHT22;13866;50.748;12.630;2022-10-04T17:19:55;12.10;99.90
26107;DHT22;13866;50.748;12.630;2022-10-04T17:22:34;12.00;99.90
26107;DHT22;13866;50.748;12.630;2022-10-04T17:28:16;11.90;99.90
26107;DHT22;13866;50.748;12.630;2022-10-04T17:31:00;11.90;99.90
26107;DHT22;13866;50.748;12.630;2022-10-04T17:33:50;11.90;99.90
26107;DHT22;13866;50.748;12.630;2022-10-04T17:39:01;11.80;99.90
26107;DHT22;13866;50.748;12.630;2022-10-04T17:41:41;11.80;99.90
26107;DHT22;13866;50.748;12.630;2022-10-04T17:44:28;11.80;99.90
26107;DHT22;13866;50.748;12.630;2022-10-04T17:47:11;11.80;99.90
26107;DHT22;13866;50.748;12.630;2022-10-04T17:50:02;11.70;99.90
26107;DHT22;13866;50.748;12.630;2022-10-04T17:52:59;11.60;99.90
26107;DHT22;13866;50.748;12.630;2022-10-04T17:55:55;11.60;99.90
26107;DHT22;13866;50.748;12.630;2022-10-04T17:58:25;11.50;99.90
26107;DHT22;13866;50.748;12.630;2022-10-04T18:01:03;11.30;99.90
26107;DHT22;13866;50.748;12.630;2022-10-04T18:03:50;11.30;99.90
26107;DHT22;13866;50.748;12.630;2022-10-04T18:06:37;11.30;99.90
26107;DHT22;13866;50.748;12.630;2022-10-04T18:09:17;11.10;99.90
26107;DHT22;13866;50.748;12.630;2022-10-04T18:11:50;11.00;99.90
26107;DHT22;13866;50.748;12.630;2022-10-04T18:17:09;11.10;99.90
26107;DHT22;13866;50.748;12.630;2022-10-04T18:22:16;11.20;99.90
26107;DHT22;13866;50.748;12.630;2022-10-04T18:24:44;11.30;99.90
26107;DHT22;13866;50.748;12.630;2022-10-04T18:27:22;11.30;99.90
26107;DHT22;13866;50.748;12.630;2022-10-04T18:35:21;11.50;99.90
26107;DHT22;13866;50.748;12.630;2022-10-04T18:37:47;11.60;99.90
26107;DHT22;13866;50.748;12.630;2022-10-04T18:40:20;11.60;99.90
26107;DHT22;13866;50.748;12.630;2022-10-04T18:42:56;11.60;99.90
26107;DHT22;13866;50.748;12.630;2022-10-04T18:45:30;11.60;99.90
26107;DHT22;13866;50.748;12.630;2022-10-04T18:47:59;11.70;99.90
26107;DHT22;13866;50.748;12.630;2022-10-04T18:50:48;11.70;99.90
26107;DHT22;13866;50.748;12.630;2022-10-04T18:53:40;11.70;99.90
26107;DHT22;13866;50.748;12.630;2022-10-04T18:56:09;11.70;99.90
26107;DHT22;13866;50.748;12.630;2022-10-04T19:08:01;11.70;99.90
26107;DHT22;13866;50.748;12.630;2022-10-04T19:10:39;11.70;99.90
26107;DHT22;13866;50.748;12.630;2022-10-04T19:13:15;11.70;99.90
26107;DHT22;13866;50.748;12.630;2022-10-04T19:21:42;11.70;99.90
26107;DHT22;13866;50.748;12.630;2022-10-04T19:27:23;11.60;99.90
26107;DHT22;13866;50.748;12.630;2022-10-04T19:35:13;11.60;99.90
26107;DHT22;13866;50.748;12.630;2022-10-04T19:44:10;11.60;99.90
26107;DHT22;13866;50.748;12.630;2022-10-04T19:47:19;11.50;99.90
26107;DHT22;13866;50.748;12.630;2022-10-04T19:53:02;11.60;99.90
26107;DHT22;13866;50.748;12.630;2022-10-04T19:56:10;11.60;99.90
26107;DHT22;13866;50.748;12.630;2022-10-04T19:58:44;11.50;99.90
26107;DHT22;13866;50.748;12.630;2022-10-04T20:01:16;11.50;99.90
26107;DHT22;13866;50.748;12.630;2022-10-04T20:03:43;11.40;99.90
26107;DHT22;13866;50.748;12.630;2022-10-04T20:06:09;11.40;99.90
26107;DHT22;13866;50.748;12.630;2022-10-04T20:14:41;11.40;99.90
26107;DHT22;13866;50.748;12.630;2022-10-04T20:21:56;11.40;99.90
26107;DHT22;13866;50.748;12.630;2022-10-04T20:29:59;11.40;99.90
26107;DHT22;13866;50.748;12.630;2022-10-04T20:34:56;11.30;99.90
26107;DHT22;13866;50.748;12.630;2022-10-04T20:45:44;11.20;99.90
26107;DHT22;13866;50.748;12.630;2022-10-04T20:48:11;11.20;99.90
26107;DHT22;13866;50.748;12.630;2022-10-04T20:50:41;11.20;99.90
26107;DHT22;13866;50.748;12.630;2022-10-04T20:53:18;11.20;99.90
26107;DHT22;13866;50.748;12.630;2022-10-04T20:55:44;11.20;99.90
26107;DHT22;13866;50.748;12.630;2022-10-04T21:00:51;11.10;99.90
26107;DHT22;13866;50.748;12.630;2022-10-04T21:03:17;11.10;99.90
26107;DHT22;13866;50.748;12.630;2022-10-04T21:05:44;11.20;99.90
26107;DHT22;13866;50.748;12.630;2022-10-04T21:08:26;11.10;99.90
26107;DHT22;13866;50.748;12.630;2022-10-04T21:11:10;11.20;99.90
26107;DHT22;13866;50.748;12.630;2022-10-04T21:21:55;11.00;99.90
26107;DHT22;13866;50.748;12.630;2022-10-04T21:24:51;11.00;99.90
26107;DHT22;13866;50.748;12.630;2022-10-04T21:29:57;11.00;99.90
26107;DHT22;13866;50.748;12.630;2022-10-04T21:32:23;11.00;99.90
26107;DHT22;13866;50.748;12.630;2022-10-04T21:34:50;11.00;99.90
26107;DHT22;13866;50.748;12.630;2022-10-04T21:37:16;10.90;99.90
26107;DHT22;13866;50.748;12.630;2022-10-04T21:39:42;10.90;99.90
26107;DHT22;13866;50.748;12.630;2022-10-04T21:42:08;10.90;99.90
26107;DHT22;13866;50.748;12.630;2022-10-04T21:44:34;11.00;99.90
26107;DHT22;13866;50.748;12.630;2022-10-04T21:46:59;10.90;99.90
26107;DHT22;13866;50.748;12.630;2022-10-04T21:49:25;10.90;99.90
26107;DHT22;13866;50.748;12.630;2022-10-04T21:51:50;10.80;99.90
26107;DHT22;13866;50.748;12.630;2022-10-04T21:54:16;10.80;99.90
26107;DHT22;13866;50.748;12.630;2022-10-04T21:56:42;10.80;99.90
26107;DHT22;13866;50.748;12.630;2022-10-04T21:59:07;10.80;99.90
26107;DHT22;13866;50.748;12.630;2022-10-04T22:01:33;10.80;99.90
26107;DHT22;13866;50.748;12.630;2022-10-04T22:03:58;10.80;99.90
26107;DHT22;13866;50.748;12.630;2022-10-04T22:06:24;10.80;99.90
26107;DHT22;13866;50.748;12.630;2022-10-04T22:08:49;10.70;99.90
26107;DHT22;13866;50.748;12.630;2022-10-04T22:11:15;10.70;99.90
26107;DHT22;13866;50.748;12.630;2022-10-04T22:13:41;10.70;99.90
26107;DHT22;13866;50.748;12.630;2022-10-04T22:16:07;10.70;99.90
26107;DHT22;13866;50.748;12.630;2022-10-04T22:18:32;10.70;99.90
26107;DHT22;13866;50.748;12.630;2022-10-04T22:20:58;10.70;99.90
26107;DHT22;13866;50.748;12.630;2022-10-04T22:23:27;10.70;99.90
26107;DHT22;13866;50.748;12.630;2022-10-04T22:25:54;10.80;99.90
26107;DHT22;13866;50.748;12.630;2022-10-04T22:28:25;10.80;99.90
26107;DHT22;13866;50.748;12.630;2022-10-04T22:30:51;10.80;99.90
26107;DHT22;13866;50.748;12.630;2022-10-04T22:33:35;10.90;99.90
26107;DHT22;13866;50.748;12.630;2022-10-04T22:41:39;11.10;99.90
26107;DHT22;13866;50.748;12.630;2022-10-04T22:44:17;11.20;99.90
26107;DHT22;13866;50.748;12.630;2022-10-04T22:46:47;11.20;99.90
26107;DHT22;13866;50.748;12.630;2022-10-04T22:49:15;11.20;99.90
26107;DHT22;13866;50.748;12.630;2022-10-04T22:51:43;11.30;99.90
26107;DHT22;13866;50.748;12.630;2022-10-04T22:54:15;11.40;99.90
26107;DHT22;13866;50.748;12.630;2022-10-04T22:56:41;11.40;99.90
26107;DHT22;13866;50.748;12.630;2022-10-04T22:59:12;11.40;99.90
26107;DHT22;13866;50.748;12.630;2022-10-04T23:01:38;11.50;99.90
26107;DHT22;13866;50.748;12.630;2022-10-04T23:04:15;11.40;99.90
26107;DHT22;13866;50.748;12.630;2022-10-04T23:06:42;11.40;99.90
26107;DHT22;13866;50.748;12.630;2022-10-04T23:09:08;11.40;99.90
26107;DHT22;13866;50.748;12.630;2022-10-04T23:11:33;11.50;99.90
26107;DHT22;13866;50.748;12.630;2022-10-04T23:13:59;11.50;99.90
26107;DHT22;13866;50.748;12.630;2022-10-04T23:16:25;11.60;99.90
26107;DHT22;13866;50.748;12.630;2022-10-04T23:18:58;11.50;99.90
26107;DHT22;13866;50.748;12.630;2022-10-04T23:21:25;11.50;99.90
26107;DHT22;13866;50.748;12.630;2022-10-04T23:24:00;11.50;99.90
26107;DHT22;13866;50.748;12.630;2022-10-04T23:26:37;11.60;99.90
26107;DHT22;13866;50.748;12.630;2022-10-04T23:29:25;11.50;99.90
26107;DHT22;13866;50.748;12.630;2022-10-04T23:31:52;11.50;99.90
26107;DHT22;13866;50.748;12.630;2022-10-04T23:34:27;11.50;99.90
26107;DHT22;13866;50.748;12.630;2022-10-04T23:36:55;11.50;99.90
26107;DHT22;13866;50.748;12.630;2022-10-04T23:39:26;11.50;99.90
26107;DHT22;13866;50.748;12.630;2022-10-04T23:41:53;11.40;99.90
26107;DHT22;13866;50.748;12.630;2022-10-04T23:44:22;11.40;99.90
26107;DHT22;13866;50.748;12.630;2022-10-04T23:46:48;11.40;99.90
26107;DHT22;13866;50.748;12.630;2022-10-04T23:49:17;11.40;99.90
26107;DHT22;13866;50.748;12.630;2022-10-04T23:51:44;11.30;99.90
26107;DHT22;13866;50.748;12.630;2022-10-04T23:54:14;11.30;99.90
26107;DHT22;13866;50.748;12.630;2022-10-04T23:56:41;11.30;99.90
26107;DHT22;13866;50.748;12.630;2022-10-04T23:59:19;11.20;99.90
